sensor_id;sensor_type;location;lat;lon;timestamp;pressure;altitude;pressure_sealevel;temperature;humidity
77877;BME280;67251;50.844;7.978;2023-07-20T00:01:06;98592.25;;;13.48;79.58
77877;BME280;67251;50.844;7.978;2023-07-20T00:03:32;98593.63;;;13.39;79.99
77877;BME280;67251;50.844;7.978;2023-07-20T00:05:57;98600.44;;;13.23;80.10
77877;BME280;67251;50.844;7.978;2023-07-20T00:08:23;98596.66;;;13.05;81.09
77877;BME280;67251;50.844;7.978;2023-07-20T00:10:48;98592.91;;;12.88;81.30
77877;BME280;67251;50.844;7.978;2023-07-20T00:13:13;98597.41;;;12.69;82.03
77877;BME280;67251;50.844;7.978;2023-07-20T00:15:41;98595.31;;;12.53;82.54
77877;BME280;67251;50.844;7.978;2023-07-20T00:18:07;98597.50;;;12.38;83.19
77877;BME280;67251;50.844;7.978;2023-07-20T00:20:32;98592.63;;;12.28;83.78
77877;BME280;67251;50.844;7.978;2023-07-20T00:22:58;98593.28;;;12.23;84.13
77877;BME280;67251;50.844;7.978;2023-07-20T00:25:24;98588.19;;;12.15;84.88
77877;BME280;67251;50.844;7.978;2023-07-20T00:27:49;98587.84;;;12.05;85.38
77877;BME280;67251;50.844;7.978;2023-07-20T00:30:15;98591.19;;;11.94;85.61
77877;BME280;67251;50.844;7.978;2023-07-20T00:32:42;98587.75;;;11.87;85.93
77877;BME280;67251;50.844;7.978;2023-07-20T00:35:08;98584.88;;;11.75;86.41
77877;BME280;67251;50.844;7.978;2023-07-20T00:37:33;98585.16;;;11.67;86.74
77877;BME280;67251;50.844;7.978;2023-07-20T00:39:59;98584.59;;;11.58;87.18
77877;BME280;67251;50.844;7.978;2023-07-20T00:42:24;98578.88;;;11.48;87.42
77877;BME280;67251;50.844;7.978;2023-07-20T00:44:49;98584.22;;;11.41;88.19
77877;BME280;67251;50.844;7.978;2023-07-20T00:47:15;98588.59;;;11.36;88.46
77877;BME280;67251;50.844;7.978;2023-07-20T00:49:40;98581.59;;;11.28;88.91
77877;BME280;67251;50.844;7.978;2023-07-20T00:52:07;98590.72;;;11.20;89.60
77877;BME280;67251;50.844;7.978;2023-07-20T00:54:32;98596.06;;;11.14;90.57
77877;BME280;67251;50.844;7.978;2023-07-20T00:57:00;98592.38;;;11.08;90.80
77877;BME280;67251;50.844;7.978;2023-07-20T00:59:26;98594.88;;;11.03;91.04
77877;BME280;67251;50.844;7.978;2023-07-20T01:01:51;98595.28;;;11.00;91.62
77877;BME280;67251;50.844;7.978;2023-07-20T01:04:17;98595.72;;;10.97;91.80
77877;BME280;67251;50.844;7.978;2023-07-20T01:07:03;98592.84;;;10.92;92.03
77877;BME280;67251;50.844;7.978;2023-07-20T01:09:43;98598.84;;;10.87;92.24
77877;BME280;67251;50.844;7.978;2023-07-20T01:12:22;98599.06;;;10.79;92.56
77877;BME280;67251;50.844;7.978;2023-07-20T01:14:51;98592.88;;;10.79;93.77
77877;BME280;67251;50.844;7.978;2023-07-20T01:17:16;98606.03;;;10.87;94.61
77877;BME280;67251;50.844;7.978;2023-07-20T01:19:42;98599.03;;;10.92;94.50
77877;BME280;67251;50.844;7.978;2023-07-20T01:27:26;98603.91;;;11.09;94.46
77877;BME280;67251;50.844;7.978;2023-07-20T01:30:12;98608.59;;;11.26;95.92
77877;BME280;67251;50.844;7.978;2023-07-20T01:32:41;98597.41;;;11.43;95.21
77877;BME280;67251;50.844;7.978;2023-07-20T01:35:08;98604.16;;;11.52;94.25
77877;BME280;67251;50.844;7.978;2023-07-20T01:37:37;98599.84;;;11.58;93.46
77877;BME280;67251;50.844;7.978;2023-07-20T01:40:03;98598.56;;;11.60;92.89
77877;BME280;67251;50.844;7.978;2023-07-20T01:42:30;98597.97;;;11.58;92.54
77877;BME280;67251;50.844;7.978;2023-07-20T01:44:55;98589.72;;;11.60;92.25
77877;BME280;67251;50.844;7.978;2023-07-20T01:49:48;98599.31;;;11.74;92.08
77877;BME280;67251;50.844;7.978;2023-07-20T01:52:14;98600.13;;;11.81;91.68
77877;BME280;67251;50.844;7.978;2023-07-20T01:54:40;98608.56;;;11.91;91.26
77877;BME280;67251;50.844;7.978;2023-07-20T01:57:05;98600.44;;;11.98;90.60
77877;BME280;67251;50.844;7.978;2023-07-20T01:59:31;98606.00;;;12.03;91.24
77877;BME280;67251;50.844;7.978;2023-07-20T02:01:56;98605.56;;;12.06;90.76
77877;BME280;67251;50.844;7.978;2023-07-20T02:04:21;98609.47;;;12.10;90.34
77877;BME280;67251;50.844;7.978;2023-07-20T02:06:53;98608.41;;;12.11;90.06
77877;BME280;67251;50.844;7.978;2023-07-20T02:09:19;98611.31;;;12.10;89.90
77877;BME280;67251;50.844;7.978;2023-07-20T02:11:45;98604.91;;;12.11;89.65
77877;BME280;67251;50.844;7.978;2023-07-20T02:14:10;98608.59;;;12.16;90.70
77877;BME280;67251;50.844;7.978;2023-07-20T02:16:35;98604.59;;;12.25;89.55
77877;BME280;67251;50.844;7.978;2023-07-20T02:19:01;98610.53;;;12.34;88.96
77877;BME280;67251;50.844;7.978;2023-07-20T02:21:26;98604.50;;;12.39;88.55
77877;BME280;67251;50.844;7.978;2023-07-20T02:23:51;98606.16;;;12.40;88.26
77877;BME280;67251;50.844;7.978;2023-07-20T02:26:17;98603.47;;;12.40;88.05
77877;BME280;67251;50.844;7.978;2023-07-20T02:28:42;98599.13;;;12.39;88.07
77877;BME280;67251;50.844;7.978;2023-07-20T02:31:07;98603.88;;;12.37;88.17
77877;BME280;67251;50.844;7.978;2023-07-20T02:33:33;98604.94;;;12.36;88.45
77877;BME280;67251;50.844;7.978;2023-07-20T02:35:58;98606.16;;;12.40;88.41
77877;BME280;67251;50.844;7.978;2023-07-20T02:38:23;98598.91;;;12.40;88.17
77877;BME280;67251;50.844;7.978;2023-07-20T02:40:49;98601.16;;;12.43;88.31
77877;BME280;67251;50.844;7.978;2023-07-20T02:43:15;98586.28;;;12.47;87.99
77877;BME280;67251;50.844;7.978;2023-07-20T02:45:41;98592.88;;;12.45;88.00
77877;BME280;67251;50.844;7.978;2023-07-20T02:48:08;98589.63;;;12.43;89.21
77877;BME280;67251;50.844;7.978;2023-07-20T02:50:33;98584.44;;;12.41;88.80
77877;BME280;67251;50.844;7.978;2023-07-20T02:53:00;98579.09;;;12.41;89.38
77877;BME280;67251;50.844;7.978;2023-07-20T02:55:25;98587.59;;;12.38;89.27
77877;BME280;67251;50.844;7.978;2023-07-20T02:57:51;98589.88;;;12.35;89.87
77877;BME280;67251;50.844;7.978;2023-07-20T03:00:16;98584.25;;;12.43;89.53
77877;BME280;67251;50.844;7.978;2023-07-20T03:02:44;98581.94;;;12.46;88.87
77877;BME280;67251;50.844;7.978;2023-07-20T03:05:13;98583.78;;;12.46;88.71
77877;BME280;67251;50.844;7.978;2023-07-20T03:07:38;98588.84;;;12.36;88.84
77877;BME280;67251;50.844;7.978;2023-07-20T03:10:04;98586.06;;;12.24;89.46
77877;BME280;67251;50.844;7.978;2023-07-20T03:12:32;98589.06;;;12.09;90.14
77877;BME280;67251;50.844;7.978;2023-07-20T03:14:59;98588.69;;;11.99;90.60
77877;BME280;67251;50.844;7.978;2023-07-20T03:17:24;98593.28;;;11.92;90.86
77877;BME280;67251;50.844;7.978;2023-07-20T03:19:50;98603.22;;;11.85;91.02
77877;BME280;67251;50.844;7.978;2023-07-20T03:22:15;98593.09;;;11.80;91.29
77877;BME280;67251;50.844;7.978;2023-07-20T03:24:41;98604.88;;;11.86;91.32
77877;BME280;67251;50.844;7.978;2023-07-20T03:27:06;98602.78;;;11.88;91.55
77877;BME280;67251;50.844;7.978;2023-07-20T03:29:32;98601.97;;;11.87;91.50
77877;BME280;67251;50.844;7.978;2023-07-20T03:31:58;98604.03;;;11.78;91.62
77877;BME280;67251;50.844;7.978;2023-07-20T03:34:24;98605.34;;;11.69;92.62
77877;BME280;67251;50.844;7.978;2023-07-20T03:36:50;98599.78;;;11.64;92.98
77877;BME280;67251;50.844;7.978;2023-07-20T03:39:15;98607.25;;;11.62;93.53
77877;BME280;67251;50.844;7.978;2023-07-20T03:41:41;98604.97;;;11.59;93.51
77877;BME280;67251;50.844;7.978;2023-07-20T03:44:06;98606.38;;;11.62;93.52
77877;BME280;67251;50.844;7.978;2023-07-20T03:46:31;98600.63;;;11.65;93.05
77877;BME280;67251;50.844;7.978;2023-07-20T03:48:59;98612.50;;;11.75;93.17
77877;BME280;67251;50.844;7.978;2023-07-20T03:51:24;98618.47;;;11.91;92.48
77877;BME280;67251;50.844;7.978;2023-07-20T03:53:50;98618.34;;;12.04;92.26
77877;BME280;67251;50.844;7.978;2023-07-20T03:56:15;98620.13;;;12.17;92.67
77877;BME280;67251;50.844;7.978;2023-07-20T03:58:40;98617.78;;;12.27;92.88
77877;BME280;67251;50.844;7.978;2023-07-20T04:01:06;98612.75;;;12.37;92.49
77877;BME280;67251;50.844;7.978;2023-07-20T04:03:32;98609.66;;;12.40;92.60
77877;BME280;67251;50.844;7.978;2023-07-20T04:05:57;98614.19;;;12.40;92.26
77877;BME280;67251;50.844;7.978;2023-07-20T04:08:26;98617.53;;;12.35;92.49
77877;BME280;67251;50.844;7.978;2023-07-20T04:10:52;98621.44;;;12.33;93.85
77877;BME280;67251;50.844;7.978;2023-07-20T04:13:17;98615.34;;;12.25;93.32
77877;BME280;67251;50.844;7.978;2023-07-20T04:15:43;98621.75;;;12.24;94.50
77877;BME280;67251;50.844;7.978;2023-07-20T04:18:08;98633.47;;;12.30;94.66
77877;BME280;67251;50.844;7.978;2023-07-20T04:20:33;98628.66;;;12.39;94.72
77877;BME280;67251;50.844;7.978;2023-07-20T04:22:59;98631.25;;;12.52;94.82
77877;BME280;67251;50.844;7.978;2023-07-20T04:25:24;98632.38;;;12.63;94.19
77877;BME280;67251;50.844;7.978;2023-07-20T04:27:50;98625.47;;;12.73;94.10
77877;BME280;67251;50.844;7.978;2023-07-20T04:30:17;98620.41;;;12.84;93.56
77877;BME280;67251;50.844;7.978;2023-07-20T04:32:47;98621.91;;;12.98;93.56
77877;BME280;67251;50.844;7.978;2023-07-20T04:35:18;98626.50;;;13.16;92.45
77877;BME280;67251;50.844;7.978;2023-07-20T04:37:43;98619.75;;;13.32;91.29
77877;BME280;67251;50.844;7.978;2023-07-20T04:40:15;98620.63;;;13.44;90.63
77877;BME280;67251;50.844;7.978;2023-07-20T04:42:40;98625.03;;;13.57;90.29
77877;BME280;67251;50.844;7.978;2023-07-20T04:45:06;98624.94;;;13.63;89.84
77877;BME280;67251;50.844;7.978;2023-07-20T04:47:32;98621.81;;;13.66;89.50
77877;BME280;67251;50.844;7.978;2023-07-20T04:49:57;98622.19;;;13.70;89.58
77877;BME280;67251;50.844;7.978;2023-07-20T04:52:23;98622.09;;;13.76;89.59
77877;BME280;67251;50.844;7.978;2023-07-20T04:54:48;98618.13;;;13.79;89.10
77877;BME280;67251;50.844;7.978;2023-07-20T04:57:13;98627.59;;;13.81;89.20
77877;BME280;67251;50.844;7.978;2023-07-20T04:59:39;98615.91;;;13.88;88.64
77877;BME280;67251;50.844;7.978;2023-07-20T05:02:04;98616.56;;;14.01;87.82
77877;BME280;67251;50.844;7.978;2023-07-20T05:04:30;98619.06;;;14.15;87.48
77877;BME280;67251;50.844;7.978;2023-07-20T05:06:55;98615.13;;;14.29;86.66
77877;BME280;67251;50.844;7.978;2023-07-20T05:09:20;98616.22;;;14.40;86.44
77877;BME280;67251;50.844;7.978;2023-07-20T05:11:46;98629.19;;;14.43;85.61
77877;BME280;67251;50.844;7.978;2023-07-20T05:14:13;98627.81;;;14.40;86.25
77877;BME280;67251;50.844;7.978;2023-07-20T05:16:38;98612.91;;;14.38;86.11
77877;BME280;67251;50.844;7.978;2023-07-20T05:19:04;98617.31;;;14.50;86.07
77877;BME280;67251;50.844;7.978;2023-07-20T05:21:29;98617.81;;;14.82;84.21
77877;BME280;67251;50.844;7.978;2023-07-20T05:23:55;98615.31;;;15.04;83.25
77877;BME280;67251;50.844;7.978;2023-07-20T05:26:20;98617.22;;;14.92;83.58
77877;BME280;67251;50.844;7.978;2023-07-20T05:28:45;98622.50;;;14.87;83.81
77877;BME280;67251;50.844;7.978;2023-07-20T05:31:11;98620.63;;;14.88;83.81
77877;BME280;67251;50.844;7.978;2023-07-20T05:33:36;98625.06;;;14.94;83.77
77877;BME280;67251;50.844;7.978;2023-07-20T05:36:01;98624.59;;;14.97;83.53
77877;BME280;67251;50.844;7.978;2023-07-20T05:38:27;98624.13;;;15.00;83.22
77877;BME280;67251;50.844;7.978;2023-07-20T05:40:52;98625.06;;;14.94;83.38
77877;BME280;67251;50.844;7.978;2023-07-20T05:43:17;98630.69;;;15.04;83.16
77877;BME280;67251;50.844;7.978;2023-07-20T05:45:43;98621.53;;;15.17;82.42
77877;BME280;67251;50.844;7.978;2023-07-20T05:48:10;98622.72;;;15.21;81.56
77877;BME280;67251;50.844;7.978;2023-07-20T05:50:37;98625.50;;;15.26;81.41
77877;BME280;67251;50.844;7.978;2023-07-20T05:53:03;98633.19;;;15.46;81.34
77877;BME280;67251;50.844;7.978;2023-07-20T05:55:28;98622.66;;;15.84;79.40
77877;BME280;67251;50.844;7.978;2023-07-20T05:57:53;98628.66;;;16.32;78.28
77877;BME280;67251;50.844;7.978;2023-07-20T06:00:21;98629.97;;;16.29;77.00
77877;BME280;67251;50.844;7.978;2023-07-20T06:02:54;98632.72;;;16.18;77.00
77877;BME280;67251;50.844;7.978;2023-07-20T06:05:21;98628.38;;;16.00;77.70
77877;BME280;67251;50.844;7.978;2023-07-20T06:07:46;98637.81;;;15.86;78.13
77877;BME280;67251;50.844;7.978;2023-07-20T06:10:11;98637.41;;;15.94;77.90
77877;BME280;67251;50.844;7.978;2023-07-20T06:12:37;98642.63;;;16.12;76.91
77877;BME280;67251;50.844;7.978;2023-07-20T06:15:04;98638.28;;;16.11;75.23
77877;BME280;67251;50.844;7.978;2023-07-20T06:17:29;98641.00;;;16.11;75.60
77877;BME280;67251;50.844;7.978;2023-07-20T06:19:55;98643.88;;;16.21;74.62
77877;BME280;67251;50.844;7.978;2023-07-20T06:22:20;98642.34;;;16.25;74.70
77877;BME280;67251;50.844;7.978;2023-07-20T06:24:46;98649.84;;;16.85;72.01
77877;BME280;67251;50.844;7.978;2023-07-20T06:27:11;98644.63;;;18.00;67.21
77877;BME280;67251;50.844;7.978;2023-07-20T06:29:37;98639.88;;;18.39;65.57
77877;BME280;67251;50.844;7.978;2023-07-20T06:32:03;98634.31;;;19.73;60.65
77877;BME280;67251;50.844;7.978;2023-07-20T06:34:28;98633.59;;;22.06;53.51
77877;BME280;67251;50.844;7.978;2023-07-20T06:36:55;98641.88;;;22.74;50.79
77877;BME280;67251;50.844;7.978;2023-07-20T06:39:20;98655.13;;;21.22;54.62
77877;BME280;67251;50.844;7.978;2023-07-20T06:41:46;98644.50;;;21.15;54.11
77877;BME280;67251;50.844;7.978;2023-07-20T06:44:12;98651.34;;;20.87;54.62
77877;BME280;67251;50.844;7.978;2023-07-20T06:46:37;98641.28;;;20.88;55.33
77877;BME280;67251;50.844;7.978;2023-07-20T06:49:06;98647.78;;;21.23;53.89
77877;BME280;67251;50.844;7.978;2023-07-20T06:51:33;98637.69;;;20.21;56.04
77877;BME280;67251;50.844;7.978;2023-07-20T06:53:58;98638.66;;;19.84;56.87
77877;BME280;67251;50.844;7.978;2023-07-20T06:56:23;98640.28;;;19.80;57.42
77877;BME280;67251;50.844;7.978;2023-07-20T06:58:49;98636.91;;;20.46;55.94
77877;BME280;67251;50.844;7.978;2023-07-20T07:01:14;98638.63;;;21.78;51.50
77877;BME280;67251;50.844;7.978;2023-07-20T07:03:40;98645.19;;;22.32;49.89
77877;BME280;67251;50.844;7.978;2023-07-20T07:06:05;98641.97;;;22.64;49.12
77877;BME280;67251;50.844;7.978;2023-07-20T07:08:30;98637.19;;;23.86;46.03
77877;BME280;67251;50.844;7.978;2023-07-20T07:10:56;98639.06;;;25.86;41.04
77877;BME280;67251;50.844;7.978;2023-07-20T07:13:21;98645.78;;;26.30;40.44
77877;BME280;67251;50.844;7.978;2023-07-20T07:15:47;98642.41;;;24.63;43.01
77877;BME280;67251;50.844;7.978;2023-07-20T07:18:12;98643.69;;;23.42;45.74
77877;BME280;67251;50.844;7.978;2023-07-20T07:20:37;98643.66;;;24.70;43.72
77877;BME280;67251;50.844;7.978;2023-07-20T07:23:03;98635.25;;;24.81;42.54
77877;BME280;67251;50.844;7.978;2023-07-20T07:25:28;98646.41;;;23.18;45.90
77877;BME280;67251;50.844;7.978;2023-07-20T07:27:55;98642.69;;;23.33;45.23
77877;BME280;67251;50.844;7.978;2023-07-20T07:30:21;98630.59;;;25.14;42.20
77877;BME280;67251;50.844;7.978;2023-07-20T07:32:46;98621.13;;;27.29;37.66
77877;BME280;67251;50.844;7.978;2023-07-20T07:35:12;98626.72;;;28.12;35.53
77877;BME280;67251;50.844;7.978;2023-07-20T07:37:37;98629.91;;;27.39;36.84
77877;BME280;67251;50.844;7.978;2023-07-20T07:40:03;98645.53;;;25.49;39.54
77877;BME280;67251;50.844;7.978;2023-07-20T07:42:29;98654.34;;;23.91;43.65
77877;BME280;67251;50.844;7.978;2023-07-20T07:44:55;98653.91;;;24.22;43.87
77877;BME280;67251;50.844;7.978;2023-07-20T07:47:20;98648.41;;;24.79;42.18
77877;BME280;67251;50.844;7.978;2023-07-20T07:49:45;98649.88;;;23.77;44.89
77877;BME280;67251;50.844;7.978;2023-07-20T07:52:11;98665.03;;;22.37;48.26
77877;BME280;67251;50.844;7.978;2023-07-20T07:54:36;98661.63;;;22.16;49.62
77877;BME280;67251;50.844;7.978;2023-07-20T07:57:02;98668.78;;;21.97;49.84
77877;BME280;67251;50.844;7.978;2023-07-20T07:59:27;98660.91;;;22.45;49.26
77877;BME280;67251;50.844;7.978;2023-07-20T08:01:52;98652.41;;;25.19;43.13
77877;BME280;67251;50.844;7.978;2023-07-20T08:04:18;98651.31;;;26.53;39.18
77877;BME280;67251;50.844;7.978;2023-07-20T08:06:44;98655.19;;;25.46;40.35
77877;BME280;67251;50.844;7.978;2023-07-20T08:09:09;98648.03;;;26.87;39.03
77877;BME280;67251;50.844;7.978;2023-07-20T08:11:35;98654.69;;;26.72;39.18
77877;BME280;67251;50.844;7.978;2023-07-20T08:14:00;98659.38;;;25.11;41.59
77877;BME280;67251;50.844;7.978;2023-07-20T08:16:26;98651.31;;;26.53;39.01
77877;BME280;67251;50.844;7.978;2023-07-20T08:18:52;98655.63;;;27.83;36.45
77877;BME280;67251;50.844;7.978;2023-07-20T08:21:19;98650.72;;;28.46;34.96
77877;BME280;67251;50.844;7.978;2023-07-20T08:23:44;98648.00;;;28.37;35.21
77877;BME280;67251;50.844;7.978;2023-07-20T08:26:09;98651.19;;;28.31;34.52
77877;BME280;67251;50.844;7.978;2023-07-20T08:28:35;98649.53;;;29.16;33.19
77877;BME280;67251;50.844;7.978;2023-07-20T08:31:00;98652.03;;;29.56;32.74
77877;BME280;67251;50.844;7.978;2023-07-20T08:33:25;98645.66;;;29.17;33.90
77877;BME280;67251;50.844;7.978;2023-07-20T08:35:54;98647.09;;;29.23;32.96
77877;BME280;67251;50.844;7.978;2023-07-20T08:38:20;98660.50;;;27.15;36.12
77877;BME280;67251;50.844;7.978;2023-07-20T08:40:46;98670.59;;;25.42;40.35
77877;BME280;67251;50.844;7.978;2023-07-20T08:43:12;98676.06;;;24.02;42.08
77877;BME280;67251;50.844;7.978;2023-07-20T08:45:40;98680.25;;;23.94;43.09
77877;BME280;67251;50.844;7.978;2023-07-20T08:48:07;98669.47;;;24.45;41.39
77877;BME280;67251;50.844;7.978;2023-07-20T08:50:34;98665.53;;;24.33;41.69
77877;BME280;67251;50.844;7.978;2023-07-20T08:53:01;98674.09;;;23.59;43.45
77877;BME280;67251;50.844;7.978;2023-07-20T08:55:28;98660.13;;;25.44;40.84
77877;BME280;67251;50.844;7.978;2023-07-20T08:57:55;98646.97;;;27.27;35.18
77877;BME280;67251;50.844;7.978;2023-07-20T09:00:22;98649.66;;;27.50;34.06
77877;BME280;67251;50.844;7.978;2023-07-20T09:02:51;98653.38;;;27.45;33.78
77877;BME280;67251;50.844;7.978;2023-07-20T09:05:17;98646.13;;;27.49;33.79
77877;BME280;67251;50.844;7.978;2023-07-20T09:07:43;98644.91;;;28.39;32.39
77877;BME280;67251;50.844;7.978;2023-07-20T09:10:09;98652.69;;;27.80;36.03
77877;BME280;67251;50.844;7.978;2023-07-20T09:12:37;98646.69;;;27.07;36.16
77877;BME280;67251;50.844;7.978;2023-07-20T09:15:04;98661.38;;;26.07;37.39
77877;BME280;67251;50.844;7.978;2023-07-20T09:17:30;98650.91;;;27.35;37.08
77877;BME280;67251;50.844;7.978;2023-07-20T09:19:55;98645.03;;;28.34;33.20
77877;BME280;67251;50.844;7.978;2023-07-20T09:22:21;98641.16;;;28.95;30.89
77877;BME280;67251;50.844;7.978;2023-07-20T09:24:46;98646.81;;;28.56;31.81
77877;BME280;67251;50.844;7.978;2023-07-20T09:27:12;98651.38;;;27.37;33.03
77877;BME280;67251;50.844;7.978;2023-07-20T09:29:56;98660.38;;;25.89;35.12
77877;BME280;67251;50.844;7.978;2023-07-20T09:32:22;98652.16;;;26.03;37.27
77877;BME280;67251;50.844;7.978;2023-07-20T09:34:49;98658.91;;;25.23;38.70
77877;BME280;67251;50.844;7.978;2023-07-20T09:37:26;98650.97;;;24.00;41.49
77877;BME280;67251;50.844;7.978;2023-07-20T09:39:52;98649.25;;;24.04;40.97
77877;BME280;67251;50.844;7.978;2023-07-20T09:42:21;98652.47;;;24.48;40.77
77877;BME280;67251;50.844;7.978;2023-07-20T09:44:47;98640.88;;;24.89;38.37
77877;BME280;67251;50.844;7.978;2023-07-20T09:47:21;98641.13;;;24.55;39.22
77877;BME280;67251;50.844;7.978;2023-07-20T09:49:47;98638.22;;;24.84;38.72
77877;BME280;67251;50.844;7.978;2023-07-20T09:52:12;98643.19;;;24.07;38.62
77877;BME280;67251;50.844;7.978;2023-07-20T09:54:39;98644.81;;;23.65;40.25
77877;BME280;67251;50.844;7.978;2023-07-20T09:57:08;98633.94;;;25.11;37.90
77877;BME280;67251;50.844;7.978;2023-07-20T09:59:34;98635.50;;;25.58;36.05
77877;BME280;67251;50.844;7.978;2023-07-20T10:02:02;98630.00;;;25.72;36.40
77877;BME280;67251;50.844;7.978;2023-07-20T10:04:30;98623.53;;;27.21;35.07
77877;BME280;67251;50.844;7.978;2023-07-20T10:06:58;98625.22;;;27.80;32.60
77877;BME280;67251;50.844;7.978;2023-07-20T10:09:25;98633.81;;;27.47;33.55
77877;BME280;67251;50.844;7.978;2023-07-20T10:11:53;98633.00;;;27.46;33.83
77877;BME280;67251;50.844;7.978;2023-07-20T10:14:20;98636.09;;;27.54;32.31
77877;BME280;67251;50.844;7.978;2023-07-20T10:16:55;98635.94;;;27.50;32.57
77877;BME280;67251;50.844;7.978;2023-07-20T10:19:26;98632.84;;;28.09;31.02
77877;BME280;67251;50.844;7.978;2023-07-20T10:22:06;98627.53;;;28.21;33.21
77877;BME280;67251;50.844;7.978;2023-07-20T10:24:36;98626.91;;;28.24;31.64
77877;BME280;67251;50.844;7.978;2023-07-20T10:27:02;98626.69;;;27.46;32.19
77877;BME280;67251;50.844;7.978;2023-07-20T10:29:28;98642.44;;;26.19;33.98
77877;BME280;67251;50.844;7.978;2023-07-20T10:31:55;98634.97;;;26.11;35.44
77877;BME280;67251;50.844;7.978;2023-07-20T10:34:21;98632.78;;;26.81;34.95
77877;BME280;67251;50.844;7.978;2023-07-20T10:36:47;98632.75;;;27.03;33.93
77877;BME280;67251;50.844;7.978;2023-07-20T10:39:30;98618.34;;;27.20;34.23
77877;BME280;67251;50.844;7.978;2023-07-20T10:42:03;98624.75;;;27.46;34.86
77877;BME280;67251;50.844;7.978;2023-07-20T10:44:31;98621.50;;;27.84;32.11
77877;BME280;67251;50.844;7.978;2023-07-20T10:47:01;98610.69;;;27.96;32.02
77877;BME280;67251;50.844;7.978;2023-07-20T10:49:27;98613.91;;;27.90;33.17
77877;BME280;67251;50.844;7.978;2023-07-20T10:51:57;98601.47;;;27.92;33.01
77877;BME280;67251;50.844;7.978;2023-07-20T10:56:50;98609.84;;;27.08;34.65
77877;BME280;67251;50.844;7.978;2023-07-20T10:59:20;98602.56;;;27.03;31.74
77877;BME280;67251;50.844;7.978;2023-07-20T11:01:47;98599.13;;;27.29;32.30
77877;BME280;67251;50.844;7.978;2023-07-20T11:04:15;98602.31;;;27.13;33.02
77877;BME280;67251;50.844;7.978;2023-07-20T11:06:43;98611.28;;;26.52;33.04
77877;BME280;67251;50.844;7.978;2023-07-20T11:09:12;98614.19;;;25.69;35.46
77877;BME280;67251;50.844;7.978;2023-07-20T11:11:48;98621.53;;;24.67;36.88
77877;BME280;67251;50.844;7.978;2023-07-20T11:14:22;98616.97;;;24.06;38.99
77877;BME280;67251;50.844;7.978;2023-07-20T11:16:49;98615.63;;;23.84;39.70
77877;BME280;67251;50.844;7.978;2023-07-20T11:19:27;98609.72;;;23.77;39.43
77877;BME280;67251;50.844;7.978;2023-07-20T11:21:57;98612.75;;;24.13;39.01
77877;BME280;67251;50.844;7.978;2023-07-20T11:24:23;98618.16;;;24.18;38.18
77877;BME280;67251;50.844;7.978;2023-07-20T11:26:52;98607.81;;;23.96;37.79
77877;BME280;67251;50.844;7.978;2023-07-20T11:29:22;98598.41;;;23.84;36.89
77877;BME280;67251;50.844;7.978;2023-07-20T11:31:50;98598.25;;;24.32;36.13
77877;BME280;67251;50.844;7.978;2023-07-20T11:34:20;98599.41;;;24.96;35.72
77877;BME280;67251;50.844;7.978;2023-07-20T11:36:48;98601.31;;;25.28;35.74
77877;BME280;67251;50.844;7.978;2023-07-20T11:39:14;98600.66;;;25.04;34.96
77877;BME280;67251;50.844;7.978;2023-07-20T11:41:49;98602.56;;;24.89;34.96
77877;BME280;67251;50.844;7.978;2023-07-20T11:44:20;98602.50;;;24.24;35.58
77877;BME280;67251;50.844;7.978;2023-07-20T11:47:05;98603.47;;;23.95;36.85
77877;BME280;67251;50.844;7.978;2023-07-20T11:49:40;98605.59;;;23.98;37.21
77877;BME280;67251;50.844;7.978;2023-07-20T11:52:11;98607.16;;;24.05;38.76
77877;BME280;67251;50.844;7.978;2023-07-20T11:54:41;98602.03;;;23.98;36.62
77877;BME280;67251;50.844;7.978;2023-07-20T11:57:07;98604.59;;;23.70;36.17
77877;BME280;67251;50.844;7.978;2023-07-20T11:59:33;98602.72;;;23.66;37.30
77877;BME280;67251;50.844;7.978;2023-07-20T12:02:03;98595.28;;;23.24;38.12
77877;BME280;67251;50.844;7.978;2023-07-20T12:04:30;98603.19;;;23.01;38.59
77877;BME280;67251;50.844;7.978;2023-07-20T12:06:57;98612.72;;;22.69;37.52
77877;BME280;67251;50.844;7.978;2023-07-20T12:09:23;98607.44;;;22.49;38.86
77877;BME280;67251;50.844;7.978;2023-07-20T12:11:49;98605.16;;;22.27;39.67
77877;BME280;67251;50.844;7.978;2023-07-20T12:14:15;98614.28;;;22.02;40.67
77877;BME280;67251;50.844;7.978;2023-07-20T12:16:40;98617.56;;;21.99;40.98
77877;BME280;67251;50.844;7.978;2023-07-20T12:19:11;98610.19;;;22.00;39.69
77877;BME280;67251;50.844;7.978;2023-07-20T12:21:41;98607.72;;;22.03;39.99
77877;BME280;67251;50.844;7.978;2023-07-20T12:24:08;98611.78;;;22.06;40.01
77877;BME280;67251;50.844;7.978;2023-07-20T12:26:37;98612.88;;;22.05;40.81
77877;BME280;67251;50.844;7.978;2023-07-20T12:29:03;98604.78;;;21.94;41.49
77877;BME280;67251;50.844;7.978;2023-07-20T12:31:29;98609.06;;;22.06;41.38
77877;BME280;67251;50.844;7.978;2023-07-20T12:33:56;98620.50;;;22.13;41.93
77877;BME280;67251;50.844;7.978;2023-07-20T12:36:22;98615.63;;;22.44;41.39
77877;BME280;67251;50.844;7.978;2023-07-20T12:38:48;98607.50;;;22.39;41.77
77877;BME280;67251;50.844;7.978;2023-07-20T12:41:13;98615.41;;;22.40;41.58
77877;BME280;67251;50.844;7.978;2023-07-20T12:43:45;98606.03;;;22.52;41.51
77877;BME280;67251;50.844;7.978;2023-07-20T12:46:12;98603.19;;;22.67;40.56
77877;BME280;67251;50.844;7.978;2023-07-20T12:48:39;98599.56;;;22.77;38.89
77877;BME280;67251;50.844;7.978;2023-07-20T12:51:07;98598.31;;;23.22;38.60
77877;BME280;67251;50.844;7.978;2023-07-20T12:53:33;98599.00;;;23.57;38.33
77877;BME280;67251;50.844;7.978;2023-07-20T12:55:59;98588.75;;;23.91;37.46
77877;BME280;67251;50.844;7.978;2023-07-20T12:58:25;98593.25;;;24.01;37.38
77877;BME280;67251;50.844;7.978;2023-07-20T13:00:51;98591.09;;;24.17;37.97
77877;BME280;67251;50.844;7.978;2023-07-20T13:03:16;98588.84;;;24.76;38.13
77877;BME280;67251;50.844;7.978;2023-07-20T13:05:44;98588.88;;;25.03;36.06
77877;BME280;67251;50.844;7.978;2023-07-20T13:08:09;98588.44;;;24.82;37.28